createdAt,value
2018-05-21T00:01:00.082Z,6.73
2018-05-21T00:03:27.580Z,7.17
2018-05-21T00:05:55.076Z,7.53
2018-05-21T00:08:22.577Z,6.50
2018-05-21T00:10:50.069Z,6.60
2018-05-21T00:13:17.584Z,7.10
2018-05-21T00:15:45.117Z,7.27
2018-05-21T00:18:13.369Z,6.50
2018-05-21T00:20:40.848Z,6.80
2018-05-21T00:23:08.352Z,7.33
2018-05-21T00:25:35.865Z,7.33
2018-05-21T00:28:04.278Z,7.27
2018-05-21T00:30:31.760Z,8.40
2018-05-21T00:32:59.249Z,8.63
2018-05-21T00:35:26.741Z,9.40
2018-05-21T00:37:54.984Z,9.77
2018-05-21T00:40:22.467Z,9.87
2018-05-21T00:42:49.951Z,10.40
2018-05-21T00:45:18.216Z,11.00
2018-05-21T00:47:45.701Z,10.00
2018-05-21T00:50:13.189Z,11.70
2018-05-21T00:52:41.460Z,11.50
2018-05-21T00:55:20.589Z,10.23
2018-05-21T00:57:48.061Z,10.50
2018-05-21T01:00:15.538Z,10.40
2018-05-21T01:02:43.012Z,10.63
2018-05-21T01:05:10.509Z,9.77
2018-05-21T01:07:38.794Z,10.67
2018-05-21T01:10:07.076Z,10.07
2018-05-21T01:12:35.343Z,9.70
2018-05-21T01:15:02.829Z,9.20
2018-05-21T01:17:30.360Z,9.07
2018-05-21T01:19:59.232Z,9.80
2018-05-21T01:22:26.704Z,9.40
2018-05-21T01:24:54.213Z,9.83
2018-05-21T01:27:21.681Z,9.30
2018-05-21T01:29:49.161Z,9.00
2018-05-21T01:32:16.636Z,8.57
2018-05-21T01:34:44.434Z,8.93
2018-05-21T01:37:12.772Z,8.63
2018-05-21T01:39:40.276Z,8.77
2018-05-21T01:42:07.785Z,8.37
2018-05-21T01:44:35.296Z,9.07
2018-05-21T01:47:02.787Z,8.60
2018-05-21T01:49:30.328Z,8.33
2018-05-21T01:51:57.864Z,7.53
2018-05-21T01:54:26.102Z,7.80
2018-05-21T01:56:53.585Z,8.10
2018-05-21T01:59:21.079Z,7.10
2018-05-21T02:01:49.341Z,7.67
2018-05-21T02:04:16.809Z,7.40
2018-05-21T02:06:44.347Z,7.10
2018-05-21T02:09:11.818Z,7.20
2018-05-21T02:11:39.323Z,7.07
2018-05-21T02:14:06.821Z,6.73
2018-05-21T02:16:35.066Z,7.03
2018-05-21T02:19:02.528Z,6.93
2018-05-21T02:21:30.022Z,6.70
2018-05-21T02:23:57.489Z,6.97
2018-05-21T02:26:24.973Z,6.63
2018-05-21T02:28:52.449Z,6.07
2018-05-21T02:31:19.955Z,6.43
2018-05-21T02:33:47.450Z,6.10
2018-05-21T02:36:14.948Z,5.33
2018-05-21T02:38:42.453Z,6.33
2018-05-21T02:41:10.794Z,6.23
2018-05-21T02:43:39.055Z,6.10
2018-05-21T02:46:06.540Z,5.60
2018-05-21T02:48:34.006Z,5.93
2018-05-21T02:51:01.524Z,5.60
2018-05-21T02:53:29.775Z,6.33
2018-05-21T02:55:57.252Z,5.77
2018-05-21T02:58:24.729Z,5.63
2018-05-21T03:00:52.205Z,5.63
2018-05-21T03:03:19.677Z,5.43
2018-05-21T03:05:47.193Z,5.03
2018-05-21T03:08:14.673Z,5.43
2018-05-21T03:10:42.182Z,5.30
2018-05-21T03:13:09.648Z,4.50
2018-05-21T03:15:37.209Z,4.83
2018-05-21T03:18:04.686Z,4.80
2018-05-21T03:20:32.155Z,4.33
2018-05-21T03:22:59.642Z,5.00
2018-05-21T03:25:27.141Z,5.43
2018-05-21T03:27:55.382Z,5.00
2018-05-21T03:30:22.857Z,4.63
2018-05-21T03:32:50.341Z,4.63
2018-05-21T03:35:17.804Z,4.63
2018-05-21T03:37:45.392Z,4.63
2018-05-21T03:40:12.862Z,4.90
2018-05-21T03:42:41.142Z,4.80
2018-05-21T03:45:08.630Z,4.57
2018-05-21T03:47:36.873Z,4.17
2018-05-21T03:50:04.361Z,4.37
2018-05-21T03:52:31.858Z,4.10
2018-05-21T03:55:00.116Z,4.10
2018-05-21T03:57:27.596Z,4.10
2018-05-21T04:00:06.771Z,4.17
2018-05-21T04:02:46.847Z,4.10
2018-05-21T04:05:14.405Z,3.60
2018-05-21T04:07:41.824Z,3.60
2018-05-21T04:10:10.064Z,3.83
2018-05-21T04:12:38.313Z,3.70
2018-05-21T04:15:06.561Z,3.90
2018-05-21T04:17:34.077Z,3.83
2018-05-21T04:20:01.573Z,3.87
2018-05-21T04:22:29.869Z,3.87
2018-05-21T04:24:58.122Z,3.40
2018-05-21T04:27:25.604Z,4.10
2018-05-21T04:29:53.076Z,3.10
2018-05-21T04:32:20.566Z,3.60
2018-05-21T04:34:48.831Z,3.83
2018-05-21T04:37:16.300Z,3.50
2018-05-21T04:39:43.789Z,3.30
2018-05-21T04:42:12.042Z,3.23
2018-05-21T04:44:39.589Z,3.03
2018-05-21T04:47:07.049Z,3.10
2018-05-21T04:49:34.530Z,3.40
2018-05-21T04:52:02.013Z,3.20
2018-05-21T04:54:29.500Z,3.40
2018-05-21T04:56:57.047Z,3.40
2018-05-21T04:59:24.527Z,3.40
2018-05-21T05:01:52.938Z,4.00
2018-05-21T05:04:20.445Z,3.40
2018-05-21T05:06:48.717Z,3.57
2018-05-21T05:09:16.177Z,3.03
2018-05-21T05:11:44.421Z,3.30
2018-05-21T05:14:11.892Z,3.20
2018-05-21T05:16:39.389Z,4.13
2018-05-21T05:19:06.869Z,3.00
2018-05-21T05:21:34.363Z,3.20
2018-05-21T05:24:02.706Z,3.13
2018-05-21T05:26:30.197Z,3.17
2018-05-21T05:28:57.661Z,3.37
2018-05-21T05:31:25.163Z,3.03
2018-05-21T05:33:53.397Z,2.80
2018-05-21T05:36:20.886Z,2.80
2018-05-21T05:38:48.381Z,2.77
2018-05-21T05:41:16.621Z,3.23
2018-05-21T05:43:44.093Z,2.77
2018-05-21T05:46:11.579Z,2.87
2018-05-21T05:48:39.135Z,2.90
2018-05-21T05:51:06.642Z,3.30
2018-05-21T05:53:34.158Z,2.70
2018-05-21T05:56:01.647Z,2.63
2018-05-21T05:58:29.141Z,3.23
2018-05-21T06:00:56.647Z,2.80
2018-05-21T06:03:24.180Z,3.00
2018-05-21T06:05:51.699Z,2.80
2018-05-21T06:08:19.957Z,2.63
2018-05-21T06:10:47.466Z,2.80
2018-05-21T06:13:14.993Z,2.90
2018-05-21T06:15:42.500Z,2.70
2018-05-21T06:18:10.748Z,2.83
2018-05-21T06:20:38.224Z,2.73
2018-05-21T06:23:05.722Z,2.97
2018-05-21T06:25:33.186Z,2.53
2018-05-21T06:28:01.434Z,2.97
2018-05-21T06:30:28.921Z,2.83
2018-05-21T06:32:56.389Z,2.80
2018-05-21T06:35:23.913Z,2.60
2018-05-21T06:37:51.408Z,2.60
2018-05-21T06:40:19.151Z,2.57
2018-05-21T06:42:46.700Z,2.43
2018-05-21T06:45:14.945Z,2.37
2018-05-21T06:47:42.475Z,2.63
2018-05-21T06:50:09.994Z,2.50
2018-05-21T06:52:37.493Z,2.30
2018-05-21T06:55:05.748Z,2.23
2018-05-21T06:57:33.217Z,2.30
2018-05-21T07:00:01.509Z,2.20
2018-05-21T07:02:28.996Z,2.20
2018-05-21T07:04:56.505Z,2.37
2018-05-21T07:07:23.989Z,2.30
2018-05-21T07:09:51.480Z,1.90
2018-05-21T07:12:18.962Z,2.40
2018-05-21T07:14:46.448Z,2.43
2018-05-21T07:17:13.924Z,2.10
2018-05-21T07:19:41.421Z,2.27
2018-05-21T07:22:09.652Z,2.47
2018-05-21T07:24:37.136Z,2.23
2018-05-21T07:27:04.609Z,2.37
2018-05-21T07:29:32.187Z,2.17
2018-05-21T07:31:59.673Z,2.47
2018-05-21T07:34:27.931Z,2.00
2018-05-21T07:36:55.433Z,2.07
2018-05-21T07:39:23.685Z,2.20
2018-05-21T07:41:51.177Z,2.23
2018-05-21T07:44:20.189Z,2.10
2018-05-21T07:46:47.699Z,2.60
2018-05-21T07:49:15.181Z,2.03
2018-05-21T07:51:42.717Z,2.10
2018-05-21T07:54:10.188Z,2.10
2018-05-21T07:56:38.453Z,2.23
2018-05-21T07:59:05.993Z,2.10
2018-05-21T08:01:33.473Z,2.40
2018-05-21T08:04:00.993Z,2.20
2018-05-21T08:06:29.244Z,1.97
2018-05-21T08:08:56.821Z,2.03
2018-05-21T08:11:24.296Z,2.00
2018-05-21T08:13:51.780Z,1.77
2018-05-21T08:16:20.089Z,1.90
2018-05-21T08:18:48.349Z,2.10
2018-05-21T08:21:15.863Z,2.07
2018-05-21T08:23:43.357Z,2.50
2018-05-21T08:26:10.882Z,1.63
2018-05-21T08:28:39.154Z,2.10
2018-05-21T08:31:06.627Z,1.87
2018-05-21T08:33:34.145Z,1.80
2018-05-21T08:36:01.625Z,2.33
2018-05-21T08:38:29.105Z,2.30
2018-05-21T08:40:56.607Z,1.80
2018-05-21T08:43:24.105Z,1.67
2018-05-21T08:45:51.637Z,2.10
2018-05-21T08:48:19.121Z,1.90
2018-05-21T08:50:47.392Z,1.83
2018-05-21T08:53:14.873Z,2.00
2018-05-21T08:55:42.348Z,1.70
2018-05-21T08:58:09.930Z,1.70
2018-05-21T09:00:38.173Z,2.07
2018-05-21T09:03:06.368Z,1.77
2018-05-21T09:05:33.861Z,1.73
2018-05-21T09:08:01.350Z,1.83
2018-05-21T09:10:29.614Z,2.30
2018-05-21T09:12:57.103Z,1.73
2018-05-21T09:15:24.617Z,1.57
2018-05-21T09:17:52.121Z,1.60
2018-05-21T09:20:19.651Z,1.80
2018-05-21T09:22:47.489Z,1.90
2018-05-21T09:25:14.976Z,1.60
2018-05-21T09:27:43.224Z,1.90
2018-05-21T09:30:10.769Z,1.83
2018-05-21T09:32:38.249Z,1.67
2018-05-21T09:35:05.754Z,1.90
2018-05-21T09:37:33.293Z,1.90
2018-05-21T09:40:00.801Z,1.87
2018-05-21T09:42:29.069Z,2.00
2018-05-21T09:44:56.580Z,2.27
2018-05-21T09:47:24.829Z,2.03
2018-05-21T09:49:52.320Z,2.30
2018-05-21T09:52:19.796Z,2.27
2018-05-21T09:54:48.040Z,1.93
2018-05-21T09:57:15.585Z,2.03
2018-05-21T09:59:43.077Z,1.90
2018-05-21T10:02:10.552Z,1.93
2018-05-21T10:04:38.023Z,1.90
2018-05-21T10:07:05.504Z,1.70
2018-05-21T10:09:32.989Z,1.90
2018-05-21T10:12:00.463Z,2.20
2018-05-21T10:14:27.953Z,2.30
2018-05-21T10:16:56.197Z,2.17
2018-05-21T10:19:23.719Z,1.90
2018-05-21T10:21:51.206Z,2.00
2018-05-21T10:24:18.717Z,2.00
2018-05-21T10:26:46.205Z,1.90
2018-05-21T10:29:13.712Z,1.97
2018-05-21T10:31:41.253Z,1.80
2018-05-21T10:34:09.520Z,1.70
2018-05-21T10:36:37.018Z,1.90
2018-05-21T10:39:05.932Z,1.77
2018-05-21T10:41:34.195Z,2.00
2018-05-21T10:44:01.693Z,1.60
2018-05-21T10:46:29.964Z,1.60
2018-05-21T10:48:57.457Z,1.60
2018-05-21T10:51:25.767Z,1.80
2018-05-21T10:53:53.245Z,1.70
2018-05-21T10:56:20.817Z,1.63
2018-05-21T10:58:48.241Z,1.70
2018-05-21T11:01:16.512Z,1.80
2018-05-21T11:03:43.999Z,1.60
2018-05-21T11:06:12.248Z,2.13
2018-05-21T11:08:39.751Z,1.77
2018-05-21T11:11:07.278Z,1.43
2018-05-21T11:13:34.835Z,1.87
2018-05-21T11:16:02.323Z,1.53
2018-05-21T11:18:29.785Z,1.47
2018-05-21T11:20:57.269Z,1.50
2018-05-21T11:23:24.769Z,1.50
2018-05-21T11:25:52.288Z,1.37
2018-05-21T11:28:19.788Z,1.40
2018-05-21T11:30:47.256Z,1.87
2018-05-21T11:33:14.720Z,1.50
2018-05-21T11:35:42.205Z,1.13
2018-05-21T11:38:09.691Z,0.90
2018-05-21T11:40:37.153Z,0.70
2018-05-21T11:43:04.629Z,0.80
2018-05-21T11:45:32.121Z,0.70
2018-05-21T11:48:00.356Z,0.60
2018-05-21T11:50:27.852Z,0.57
2018-05-21T11:52:55.325Z,0.60
2018-05-21T11:55:22.818Z,0.60
2018-05-21T11:57:51.078Z,0.60
2018-05-21T12:00:18.546Z,0.70
2018-05-21T12:02:46.028Z,0.60
2018-05-21T12:05:13.500Z,0.60
2018-05-21T12:07:41.053Z,1.35
2018-05-21T12:10:08.517Z,1.10
2018-05-21T12:12:35.985Z,4.45
2018-05-21T12:15:03.484Z,2.78
2018-05-21T12:17:31.761Z,1.30
2018-05-21T12:19:59.245Z,0.80
2018-05-21T12:22:27.641Z,1.80
2018-05-21T12:24:55.048Z,3.47
2018-05-21T12:27:22.560Z,0.80
2018-05-21T12:29:50.148Z,1.00
2018-05-21T12:32:17.660Z,0.70
2018-05-21T12:34:45.166Z,0.80
2018-05-21T12:37:13.408Z,0.70
2018-05-21T12:39:40.869Z,0.70
2018-05-21T12:42:08.357Z,0.82
2018-05-21T12:44:35.817Z,0.70
2018-05-21T12:47:03.305Z,0.80
2018-05-21T12:49:30.784Z,0.80
2018-05-21T12:51:58.282Z,0.80
2018-05-21T12:54:25.755Z,0.60
2018-05-21T12:56:53.224Z,0.77
2018-05-21T12:59:20.688Z,0.75
2018-05-21T13:01:48.177Z,0.80
2018-05-21T13:04:16.412Z,0.68
2018-05-21T13:06:43.905Z,0.90
2018-05-21T13:09:11.389Z,0.80
2018-05-21T13:11:38.861Z,0.90
2018-05-21T13:14:06.340Z,0.77
2018-05-21T13:16:33.843Z,0.70
2018-05-21T13:19:01.305Z,0.70
2018-05-21T13:21:28.769Z,0.98
2018-05-21T13:23:57.078Z,3.15
2018-05-21T13:26:24.471Z,1.62
2018-05-21T13:28:51.944Z,0.80
2018-05-21T13:31:19.441Z,0.70
2018-05-21T13:33:47.780Z,0.90
2018-05-21T13:36:15.263Z,0.80
2018-05-21T13:38:42.721Z,1.10
2018-05-21T13:41:10.528Z,1.02
2018-05-21T13:43:38.030Z,0.90
2018-05-21T13:46:06.259Z,0.80
2018-05-21T13:48:33.729Z,0.88
2018-05-21T13:51:01.196Z,0.90
2018-05-21T13:53:28.704Z,0.90
2018-05-21T13:55:56.190Z,1.10
2018-05-21T13:58:24.454Z,1.10
2018-05-21T14:00:51.947Z,1.23
2018-05-21T14:03:19.433Z,0.90
2018-05-21T14:05:47.724Z,1.17
2018-05-21T14:08:15.220Z,1.00
2018-05-21T14:10:42.794Z,1.20
2018-05-21T14:13:10.285Z,1.07
2018-05-21T14:15:37.752Z,1.50
2018-05-21T14:18:05.334Z,1.50
2018-05-21T14:20:32.992Z,2.03
2018-05-21T14:23:00.494Z,2.10
2018-05-21T14:25:28.063Z,1.93
2018-05-21T14:27:55.528Z,1.53
2018-05-21T14:30:23.013Z,2.03
2018-05-21T14:32:50.508Z,5.13
2018-05-21T14:35:18.767Z,7.20
2018-05-21T14:37:46.233Z,2.47
2018-05-21T14:40:13.705Z,1.67
2018-05-21T14:42:41.238Z,2.13
2018-05-21T14:45:08.720Z,2.30
2018-05-21T14:47:36.224Z,2.30
2018-05-21T14:50:03.727Z,2.03
2018-05-21T14:52:31.964Z,1.80
2018-05-21T14:54:59.471Z,1.73
2018-05-21T14:57:26.994Z,2.13
2018-05-21T14:59:54.476Z,1.93
2018-05-21T15:02:21.968Z,2.03
2018-05-21T15:04:50.429Z,2.00
2018-05-21T15:07:18.025Z,1.80
2018-05-21T15:09:45.539Z,3.20
2018-05-21T15:12:13.776Z,3.70
2018-05-21T15:14:41.273Z,2.80
2018-05-21T15:17:08.759Z,3.17
2018-05-21T15:19:36.996Z,2.10
2018-05-21T15:22:04.566Z,2.40
2018-05-21T15:24:32.089Z,2.50
2018-05-21T15:27:00.356Z,2.40
2018-05-21T15:29:27.888Z,2.30
2018-05-21T15:31:55.392Z,2.30
2018-05-21T15:34:22.908Z,2.23
2018-05-21T15:36:50.403Z,2.10
2018-05-21T15:39:17.909Z,2.90
2018-05-21T15:41:45.387Z,2.60
2018-05-21T15:44:12.876Z,3.53
2018-05-21T15:46:40.409Z,3.17
2018-05-21T15:49:07.877Z,2.60
2018-05-21T15:51:35.358Z,3.40
2018-05-21T15:54:02.837Z,7.70
2018-05-21T15:56:30.312Z,7.67
2018-05-21T15:58:58.670Z,10.33
2018-05-21T16:01:26.177Z,4.07
2018-05-21T16:03:54.432Z,5.13
2018-05-21T16:06:21.921Z,4.67
2018-05-21T16:08:49.430Z,7.37
2018-05-21T16:11:16.906Z,4.23
2018-05-21T16:13:44.449Z,3.97
2018-05-21T16:16:12.702Z,3.33
2018-05-21T16:18:40.210Z,2.93
2018-05-21T16:21:08.448Z,3.23
2018-05-21T16:23:35.942Z,2.80
2018-05-21T16:26:03.420Z,2.80
2018-05-21T16:28:30.939Z,2.97
2018-05-21T16:30:58.412Z,2.40
2018-05-21T16:33:25.935Z,2.53
2018-05-21T16:35:53.461Z,2.60
2018-05-21T16:38:20.941Z,2.63
2018-05-21T16:40:48.441Z,2.37
2018-05-21T16:43:15.945Z,2.87
2018-05-21T16:45:44.190Z,2.90
2018-05-21T16:48:11.661Z,3.30
2018-05-21T16:50:39.136Z,3.20
2018-05-21T16:53:06.613Z,2.93
2018-05-21T16:55:34.091Z,2.70
2018-05-21T16:58:01.565Z,3.17
2018-05-21T17:00:29.927Z,2.80
2018-05-21T17:02:57.276Z,2.53
2018-05-21T17:05:24.767Z,2.90
2018-05-21T17:07:52.277Z,2.90
2018-05-21T17:10:20.569Z,3.10
2018-05-21T17:12:48.858Z,2.73
2018-05-21T17:15:17.117Z,2.90
2018-05-21T17:17:44.632Z,2.43
2018-05-21T17:20:12.137Z,2.60
2018-05-21T17:22:40.369Z,2.67
2018-05-21T17:25:08.751Z,2.80
2018-05-21T17:27:36.188Z,2.40
2018-05-21T17:30:03.698Z,2.40
2018-05-21T17:32:31.935Z,2.70
2018-05-21T17:34:59.429Z,2.37
2018-05-21T17:37:26.923Z,2.27
2018-05-21T17:39:54.412Z,2.27
2018-05-21T17:42:21.927Z,2.53
2018-05-21T17:44:49.420Z,2.27
2018-05-21T17:47:16.901Z,2.13
2018-05-21T17:49:45.175Z,2.40
2018-05-21T17:52:12.673Z,2.43
2018-05-21T17:54:40.944Z,2.10
2018-05-21T17:57:09.181Z,2.40
2018-05-21T17:59:36.664Z,2.30
2018-05-21T18:02:04.144Z,2.23
2018-05-21T18:04:31.649Z,2.10
2018-05-21T18:06:59.894Z,2.43
2018-05-21T18:09:27.382Z,2.60
2018-05-21T18:11:54.989Z,2.63
2018-05-21T18:14:23.240Z,2.50
2018-05-21T18:16:50.704Z,2.70
2018-05-21T18:19:18.198Z,2.30
2018-05-21T18:21:46.481Z,2.80
2018-05-21T18:24:13.973Z,2.27
2018-05-21T18:26:42.278Z,3.13
2018-05-21T18:29:09.809Z,2.40
2018-05-21T18:31:37.303Z,2.60
2018-05-21T18:34:05.549Z,2.70
2018-05-21T18:36:33.044Z,2.70
2018-05-21T18:39:00.527Z,2.70
2018-05-21T18:41:28.793Z,2.77
2018-05-21T18:43:56.299Z,2.70
2018-05-21T18:46:24.534Z,2.87
2018-05-21T18:48:52.039Z,2.40
2018-05-21T18:51:19.512Z,2.90
2018-05-21T18:53:47.047Z,2.50
2018-05-21T18:56:14.778Z,2.87
2018-05-21T18:58:42.341Z,2.67
2018-05-21T19:01:09.856Z,2.50
2018-05-21T19:03:37.360Z,3.03
2018-05-21T19:06:05.144Z,3.10
2018-05-21T19:08:32.656Z,2.57
2018-05-21T19:11:00.137Z,2.97
2018-05-21T19:13:27.637Z,3.17
2018-05-21T19:15:55.134Z,3.10
2018-05-21T19:18:23.368Z,3.13
2018-05-21T19:20:50.852Z,3.17
2018-05-21T19:23:18.328Z,2.50
2018-05-21T19:25:45.914Z,3.20
2018-05-21T19:28:13.410Z,2.63
2018-05-21T19:30:41.698Z,3.10
2018-05-21T19:33:09.974Z,2.90
2018-05-21T19:35:37.501Z,2.20
2018-05-21T19:38:05.025Z,3.20
2018-05-21T19:40:33.431Z,3.03
2018-05-21T19:43:00.910Z,2.80
2018-05-21T19:45:28.420Z,2.70
2018-05-21T19:47:55.942Z,2.77
2018-05-21T19:50:24.208Z,3.00
2018-05-21T19:52:52.493Z,3.17
2018-05-21T19:55:20.013Z,2.90
2018-05-21T19:57:47.502Z,2.83
2018-05-21T20:00:15.030Z,3.07
2018-05-21T20:02:42.544Z,4.37
2018-05-21T20:05:10.070Z,4.10
2018-05-21T20:07:37.564Z,3.30
2018-05-21T20:10:05.050Z,4.23
2018-05-21T20:12:33.316Z,4.23
2018-05-21T20:15:00.853Z,4.07
2018-05-21T20:17:28.333Z,4.30
2018-05-21T20:19:56.586Z,3.70
2018-05-21T20:22:24.058Z,3.87
2018-05-21T20:24:51.601Z,3.87
2018-05-21T20:27:19.068Z,3.93
2018-05-21T20:29:46.593Z,3.90
2018-05-21T20:32:14.093Z,3.40
2018-05-21T20:34:41.645Z,3.53
2018-05-21T20:37:09.946Z,3.70
2018-05-21T20:39:37.413Z,3.73
2018-05-21T20:42:05.674Z,3.87
2018-05-21T20:44:33.189Z,4.33
2018-05-21T20:47:00.678Z,4.43
2018-05-21T20:49:28.177Z,3.60
2018-05-21T20:51:55.688Z,3.60
2018-05-21T20:54:23.191Z,3.40
2018-05-21T20:56:51.619Z,4.10
2018-05-21T20:59:19.141Z,3.53
2018-05-21T21:01:46.633Z,3.73
2018-05-21T21:04:14.191Z,3.27
2018-05-21T21:06:41.697Z,3.77
2018-05-21T21:09:09.201Z,4.00
2018-05-21T21:11:37.456Z,3.90
2018-05-21T21:14:05.026Z,3.37
2018-05-21T21:16:32.625Z,3.57
2018-05-21T21:19:00.921Z,3.40
2018-05-21T21:21:28.421Z,3.40
2018-05-21T21:23:55.897Z,3.10
2018-05-21T21:26:23.458Z,3.30
2018-05-21T21:28:50.945Z,3.30
2018-05-21T21:31:18.445Z,3.07
2018-05-21T21:33:49.007Z,3.30
2018-05-21T21:36:16.567Z,3.27
2018-05-21T21:38:44.068Z,3.30
2018-05-21T21:41:12.353Z,3.17
2018-05-21T21:43:40.609Z,3.47
2018-05-21T21:46:08.096Z,3.10
2018-05-21T21:48:36.348Z,3.90
2018-05-21T21:51:03.909Z,3.90
2018-05-21T21:53:31.393Z,3.50
2018-05-21T21:55:58.906Z,3.30
2018-05-21T21:58:29.007Z,3.57
2018-05-21T22:00:56.530Z,3.43
2018-05-21T22:03:24.027Z,3.50
2018-05-21T22:05:51.532Z,3.93
2018-05-21T22:08:19.027Z,3.50
2018-05-21T22:10:47.288Z,3.30
2018-05-21T22:13:14.839Z,3.60
2018-05-21T22:15:43.155Z,3.37
2018-05-21T22:18:10.646Z,3.13
2018-05-21T22:20:38.889Z,3.50
2018-05-21T22:23:07.162Z,3.33
2018-05-21T22:25:34.641Z,3.57
2018-05-21T22:28:02.147Z,3.33
2018-05-21T22:30:30.402Z,3.40
2018-05-21T22:32:57.949Z,3.20
2018-05-21T22:35:25.433Z,3.10
2018-05-21T22:37:52.934Z,3.40
2018-05-21T22:40:20.405Z,3.80
2018-05-21T22:42:47.910Z,2.87
2018-05-21T22:45:15.415Z,3.20
2018-05-21T22:47:42.900Z,3.40
2018-05-21T22:50:10.373Z,3.17
2018-05-21T22:52:37.872Z,3.20
2018-05-21T22:55:05.332Z,3.40
2018-05-21T22:57:32.813Z,3.47
2018-05-21T23:00:01.070Z,3.50
2018-05-21T23:02:28.572Z,3.20
2018-05-21T23:04:56.939Z,3.00
2018-05-21T23:07:24.434Z,3.07
2018-05-21T23:09:52.689Z,3.37
2018-05-21T23:12:20.193Z,2.90
2018-05-21T23:14:48.486Z,3.10
2018-05-21T23:17:16.784Z,3.27
2018-05-21T23:19:45.049Z,3.00
2018-05-21T23:22:12.525Z,3.10
2018-05-21T23:24:40.794Z,2.83
2018-05-21T23:27:08.300Z,3.37
2018-05-21T23:29:36.539Z,3.20
2018-05-21T23:32:04.023Z,3.30
2018-05-21T23:34:31.605Z,3.13
2018-05-21T23:36:59.076Z,2.77
2018-05-21T23:39:26.659Z,3.57
2018-05-21T23:41:54.901Z,2.73
2018-05-21T23:44:22.365Z,3.00
2018-05-21T23:46:49.890Z,3.20
2018-05-21T23:49:18.133Z,2.93
2018-05-21T23:51:45.618Z,3.20
2018-05-21T23:54:13.085Z,3.77
2018-05-21T23:56:40.616Z,2.77
2018-05-21T23:59:08.146Z,2.83
